Terminal Aerodrome Forecast
Issued by NWS

Home | Current Version | Previous Version | Text Only | Print | Product List | Glossary On
Versions: 1 2 3 4 5 6 7 8 9 10 11 12 13 14 15 16 17 18 19 20 21
000
FTUS43 KGRR 192300 RRA
TAFBTL
TAF
KBTL 192341Z 2000/2024 17011KT P6SM FEW021
     FM200700 25004KT 4SM BR OVC050
     FM201000 26004KT 2SM BR OVC007
     FM201400 27005KT 4SM BR BKN050
     FM201500 29008KT P6SM BKN050
     FM202300 30007KT P6SM SCT250=

USA.gov is the U.S. government's official web portal to all federal, state and local government web resources and services.